Time;durP1;ratioP1;P1;durP2;ratioP2;P2;SDS_P1;SDS_P2;PMS_P1;PMS_P2;Temp;Humidity;BMP_temperature;BMP_pressure;BME280_temperature;BME280_humidity;BME280_pressure;Samples;Min_cycle;Max_cycle;Signal;HPM_P1;HPM_P2
2022/11/20 00:04:51;;;;;;;24.63;18.83;;;;;;;-5.59;91.50;99602.19;10504762;28;20039;-69
2022/11/20 00:09:53;;;;;;;23.85;18.40;;;;;;;-5.79;92.31;99606.78;10504884;28;20067;-69
2022/11/20 00:14:54;;;;;;;23.88;19.52;;;;;;;-5.56;92.66;99598.84;10486549;28;20493;-68
2022/11/20 00:19:56;;;;;;;28.63;20.55;;;;;;;-5.28;91.59;99603.81;10504371;28;20044;-69
2022/11/20 00:24:58;;;;;;;31.38;20.00;;;;;;;-5.46;91.10;99600.78;10504931;28;20040;-69
2022/11/20 00:29:59;;;;;;;33.65;20.60;;;;;;;-5.61;92.33;99593.59;10504043;28;20539;-68
2022/11/20 00:35:01;;;;;;;25.63;20.40;;;;;;;-5.78;92.42;99611.06;10503318;28;20037;-69
2022/11/20 00:40:03;;;;;;;22.42;18.52;;;;;;;-5.79;92.81;99601.66;10502901;28;20049;-69
2022/11/20 00:45:05;;;;;;;21.27;17.52;;;;;;;-5.83;91.95;99615.22;10498236;22;20041;-67
2022/11/20 00:50:07;;;;;;;20.40;18.25;;;;;;;-6.00;92.37;99613.91;10501516;28;20116;-67
2022/11/20 00:55:09;;;;;;;18.08;16.15;;;;;;;-6.02;92.33;99619.00;10501473;28;20090;-67
2022/11/20 01:00:11;;;;;;;20.30;17.63;;;;;;;-5.95;92.50;99622.59;10483363;28;20459;-67
2022/11/20 01:05:12;;;;;;;21.30;17.00;;;;;;;-6.00;92.99;99619.03;10504260;28;20036;-68
2022/11/20 01:10:14;;;;;;;25.35;18.00;;;;;;;-6.03;93.12;99624.06;10483949;28;20041;-67
2022/11/20 01:15:16;;;;;;;21.27;17.80;;;;;;;-6.04;93.17;99632.56;10500958;28;20048;-67
2022/11/20 01:20:17;;;;;;;22.25;18.25;;;;;;;-6.02;93.00;99624.13;10500363;28;20048;-67
2022/11/20 01:25:19;;;;;;;26.45;18.58;;;;;;;-6.04;93.08;99615.53;10483144;28;20044;-67
2022/11/20 01:30:21;;;;;;;20.65;17.52;;;;;;;-5.80;91.18;99610.16;10465688;28;20060;-67
2022/11/20 01:35:22;;;;;;;19.02;17.02;;;;;;;-5.80;89.80;99609.28;10500158;28;20456;-68
2022/11/20 01:40:24;;;;;;;22.23;18.00;;;;;;;-6.04;90.91;99606.97;10499340;28;20045;-68
2022/11/20 01:45:59;;;;;;;22.30;18.52;;;;;;;-5.97;91.63;99598.66;10499586;28;20044;-68
2022/11/20 01:51:03;;;;;;;20.48;18.02;;;;;;;-6.29;92.51;99596.03;10502800;28;20101;-68
2022/11/20 01:56:09;;;;;;;23.55;18.63;;;;;;;-6.24;92.97;99599.63;10499265;28;20044;-68
2022/11/20 02:01:12;;;;;;;20.23;16.80;;;;;;;-6.36;93.38;99586.47;10480639;28;20146;-68
2022/11/20 02:06:27;;;;;;;21.30;17.20;;;;;;;-5.88;93.18;99591.19;10481266;28;20083;-68
2022/11/20 02:11:30;;;;;;;18.00;15.70;;;;;;;-5.92;91.32;99589.41;10499879;28;20033;-68
2022/11/20 02:16:38;;;;;;;18.05;16.25;;;;;;;-6.05;90.97;99585.66;10499207;28;20036;-68
2022/11/20 02:21:53;;;;;;;20.33;16.83;;;;;;;-6.29;90.68;99575.59;10481275;28;20045;-68
2022/11/20 02:27:00;;;;;;;19.08;16.48;;;;;;;-6.39;91.95;99574.47;10498052;28;20039;-68
2022/11/20 02:32:02;;;;;;;20.33;15.85;;;;;;;-6.05;91.28;99569.44;10499779;28;20086;-68
2022/11/20 02:37:04;;;;;;;21.45;14.77;;;;;;;-5.85;89.74;99566.53;10480174;28;20045;-68
2022/11/20 02:42:06;;;;;;;17.92;14.13;;;;;;;-6.04;89.94;99576.28;10498591;28;20082;-67
2022/11/20 02:47:08;;;;;;;17.27;13.93;;;;;;;-6.17;89.45;99575.94;10499009;28;20127;-68
2022/11/20 02:52:09;;;;;;;16.27;13.50;;;;;;;-6.24;90.26;99574.03;10482138;28;20044;-67
2022/11/20 02:57:11;;;;;;;16.92;13.63;;;;;;;-6.12;88.88;99573.50;10500167;28;20047;-67
2022/11/20 03:02:13;;;;;;;15.05;12.75;;;;;;;-5.95;88.66;99572.25;10489470;28;20045;-68
2022/11/20 03:07:15;;;;;;;13.45;11.95;;;;;;;-6.03;87.88;99578.00;10492783;28;20093;-67
2022/11/20 03:12:17;;;;;;;16.80;13.25;;;;;;;-6.32;89.21;99566.97;10488892;28;20049;-68
2022/11/20 03:17:19;;;;;;;16.50;11.68;;;;;;;-6.25;89.08;99568.88;10505417;28;20048;-68
2022/11/20 03:22:20;;;;;;;15.13;13.50;;;;;;;-6.19;88.77;99567.34;10505737;28;20044;-68
2022/11/20 03:27:22;;;;;;;15.73;12.90;;;;;;;-6.45;89.18;99560.66;10486688;28;20062;-68
2022/11/20 03:32:24;;;;;;;15.43;12.45;;;;;;;-6.32;88.63;99555.06;10505373;28;20087;-67
2022/11/20 03:37:25;;;;;;;14.68;13.15;;;;;;;-6.52;88.80;99554.47;10505042;28;20051;-68
2022/11/20 03:42:45;;;;;;;14.68;12.57;;;;;;;-6.54;88.97;99555.28;10503806;28;20474;-68
2022/11/20 03:47:47;;;;;;;15.77;12.48;;;;;;;-6.58;89.09;99548.34;10504096;28;20040;-67
2022/11/20 03:52:48;;;;;;;15.30;13.27;;;;;;;-6.86;90.65;99558.63;10503776;28;20033;-68
2022/11/20 03:57:50;;;;;;;16.13;12.90;;;;;;;-6.76;91.00;99553.78;10505733;28;20548;-68
2022/11/20 04:02:51;;;;;;;14.02;12.73;;;;;;;-6.80;90.63;99557.94;10485665;28;20048;-68
2022/11/20 04:07:53;;;;;;;14.77;13.25;;;;;;;-6.85;91.57;99551.81;10502993;28;20044;-67
2022/11/20 04:12:55;;;;;;;13.93;12.43;;;;;;;-6.89;92.09;99538.09;10503387;28;20486;-68
2022/11/20 04:17:56;;;;;;;14.60;10.82;;;;;;;-6.79;91.85;99544.31;10505137;28;20044;-68
2022/11/20 04:22:58;;;;;;;14.90;12.70;;;;;;;-6.89;91.52;99539.78;10484816;28;20047;-68
2022/11/20 04:28:00;;;;;;;13.80;11.43;;;;;;;-6.45;89.50;99529.97;10502516;28;20047;-68
2022/11/20 04:33:01;;;;;;;11.95;10.65;;;;;;;-6.75;89.08;99527.41;10484792;28;20048;-68
2022/11/20 04:38:04;;;;;;;12.13;10.32;;;;;;;-6.63;88.95;99513.28;10501896;28;20041;-68
2022/11/20 04:43:05;;;;;;;11.85;10.63;;;;;;;-6.71;89.18;99513.88;10503017;28;20037;-68
2022/11/20 04:48:07;;;;;;;13.43;10.88;;;;;;;-6.84;90.13;99512.66;10501875;28;20049;-68
2022/11/20 04:53:09;;;;;;;15.93;11.95;;;;;;;-6.65;88.69;99516.59;10501885;28;20040;-67
2022/11/20 04:58:11;;;;;;;12.75;11.45;;;;;;;-6.89;89.23;99525.31;10483850;28;20075;-68
2022/11/20 05:03:12;;;;;;;11.65;10.45;;;;;;;-6.95;90.00;99530.25;10502953;28;20044;-67
2022/11/20 05:08:14;;;;;;;12.45;11.15;;;;;;;-6.97;89.95;99529.31;10503087;28;20055;-68
2022/11/20 05:13:16;;;;;;;11.52;10.32;;;;;;;-6.74;88.12;99534.22;10506657;28;20379;-67
2022/11/20 05:18:17;;;;;;;11.38;10.20;;;;;;;-7.18;89.50;99524.41;10501919;28;20037;-68
2022/11/20 05:23:19;;;;;;;11.27;10.10;;;;;;;-7.16;91.16;99525.34;10483297;28;20387;-68
2022/11/20 05:28:21;;;;;;;15.18;11.25;;;;;;;-6.96;88.92;99530.19;10501793;28;20037;-67
2022/11/20 05:33:23;;;;;;;13.48;10.07;;;;;;;-7.29;90.08;99523.22;10500267;28;20045;-69
2022/11/20 05:38:25;;;;;;;11.50;10.38;;;;;;;-7.32;91.23;99528.25;10499621;28;20044;-69
2022/11/20 05:43:26;;;;;;;11.13;10.02;;;;;;;-7.08;89.45;99514.47;10499334;28;20040;-69
2022/11/20 05:48:28;;;;;;;11.20;10.05;;;;;;;-7.03;89.86;99521.47;10500748;28;20044;-67
2022/11/20 05:53:31;;;;;;;11.88;10.55;;;;;;;-7.08;89.07;99514.47;10482009;28;20379;-67
2022/11/20 05:58:33;;;;;;;10.95;9.32;;;;;;;-7.30;89.47;99521.50;10499970;28;20433;-67
2022/11/20 06:03:36;;;;;;;11.75;9.88;;;;;;;-7.48;90.83;99513.25;10480551;28;20062;-67
2022/11/20 06:08:37;;;;;;;10.80;9.70;;;;;;;-7.53;91.35;99504.59;10499364;28;20102;-68
2022/11/20 06:13:40;;;;;;;9.82;8.73;;;;;;;-7.49;91.44;99506.41;10481544;28;20040;-68
2022/11/20 06:18:43;;;;;;;9.88;8.20;;;;;;;-7.52;91.77;99501.22;10499220;28;20054;-68
2022/11/20 06:23:46;;;;;;;10.90;9.27;;;;;;;-7.41;91.80;99502.41;10480503;28;20047;-68
2022/11/20 06:28:49;;;;;;;8.63;7.22;;;;;;;-7.17;88.91;99495.53;10481730;28;20410;-68
2022/11/20 06:33:51;;;;;;;9.30;8.30;;;;;;;-6.96;87.51;99492.72;10498521;28;20490;-68
2022/11/20 06:38:52;;;;;;;10.35;8.57;;;;;;;-7.20;88.98;99492.00;10498100;28;20493;-68
2022/11/20 06:43:55;;;;;;;9.75;8.60;;;;;;;-6.96;89.15;99496.97;10512827;22;20036;-71
2022/11/20 06:48:58;;;;;;;10.10;8.75;;;;;;;-7.00;89.59;99498.56;10478386;28;20048;-72
2022/11/20 06:54:00;;;;;;;9.00;7.97;;;;;;;-7.16;89.45;99491.28;10479045;28;20052;-71
2022/11/20 06:59:07;;;;;;;10.30;9.20;;;;;;;-7.24;90.37;99483.38;10479206;28;20045;-70
2022/11/20 07:04:08;;;;;;;10.17;9.07;;;;;;;-7.14;90.86;99485.38;10498654;28;20033;-69
2022/11/20 07:09:10;;;;;;;9.00;8.02;;;;;;;-7.09;90.48;99490.63;10499048;28;20044;-71
2022/11/20 07:14:13;;;;;;;12.88;9.68;;;;;;;-7.20;90.21;99486.91;10481879;28;20040;-70
2022/11/20 07:19:15;;;;;;;11.50;9.57;;;;;;;-7.15;90.51;99486.22;10499001;28;20119;-70
2022/11/20 07:24:17;;;;;;;9.48;8.43;;;;;;;-7.12;91.14;99477.78;10498872;28;20041;-71
2022/11/20 07:29:19;;;;;;;11.13;9.75;;;;;;;-6.84;91.03;99483.69;10498807;28;20048;-69
2022/11/20 07:34:21;;;;;;;9.95;8.95;;;;;;;-6.71;90.70;99484.06;10498711;28;20100;-71
2022/11/20 07:39:23;;;;;;;12.68;10.50;;;;;;;-6.65;90.69;99478.25;10498822;28;20111;-71
2022/11/20 07:44:24;;;;;;;10.55;9.25;;;;;;;-6.59;90.70;99475.03;10501120;28;20047;-70
2022/11/20 07:49:26;;;;;;;10.80;9.70;;;;;;;-6.44;91.04;99471.19;10505396;28;20115;-69
2022/11/20 07:54:28;;;;;;;11.27;10.05;;;;;;;-6.30;90.94;99473.25;10505444;28;20097;-70
2022/11/20 07:59:30;;;;;;;12.63;10.85;;;;;;;-6.05;89.72;99470.50;10505985;28;20056;-70
2022/11/20 08:04:33;;;;;;;12.05;10.85;;;;;;;-5.99;89.59;99457.00;10505635;28;20044;-70
2022/11/20 08:09:34;;;;;;;11.55;9.57;;;;;;;-5.88;89.38;99465.78;10506379;28;20048;-72
2022/11/20 08:14:36;;;;;;;12.85;11.48;;;;;;;-5.68;87.65;99462.00;10488021;28;20059;-71
2022/11/20 08:19:38;;;;;;;13.80;11.48;;;;;;;-5.55;86.69;99465.72;10487433;28;20051;-70
2022/11/20 08:24:39;;;;;;;13.18;11.25;;;;;;;-5.52;86.03;99464.94;10505019;28;20044;-69
2022/11/20 08:29:41;;;;;;;14.80;13.40;;;;;;;-5.42;86.15;99464.31;10487400;28;20119;-70
2022/11/20 08:34:43;;;;;;;13.43;12.02;;;;;;;-5.43;86.17;99457.47;10506529;28;20033;-71
2022/11/20 08:39:44;;;;;;;12.73;11.48;;;;;;;-5.21;85.76;99454.53;10504313;28;20048;-70
2022/11/20 08:44:46;;;;;;;13.60;12.20;;;;;;;-4.53;81.84;99455.91;10505408;28;20049;-69
2022/11/20 08:49:48;;;;;;;16.38;14.20;;;;;;;-4.20;79.18;99459.13;10486782;28;20052;-70
2022/11/20 08:54:50;;;;;;;17.58;13.95;;;;;;;-4.16;78.20;99444.63;10502752;28;20090;-70
2022/11/20 08:59:52;;;;;;;14.85;13.25;;;;;;;-4.27;77.59;99443.59;10504190;28;20045;-70
2022/11/20 09:05:10;;;;;;;17.23;13.02;;;;;;;-4.27;78.32;99428.19;10499072;28;20120;-70
2022/11/20 09:10:11;;;;;;;15.95;14.20;;;;;;;-4.12;77.76;99426.78;10501796;28;20041;-70
2022/11/20 09:15:28;;;;;;;;;;;;;;;-3.95;75.93;99413.31;10502818;28;20387;-69
2022/11/20 09:20:31;;;;;;;15.18;13.57;;;;;;;-3.51;72.97;99406.31;10484391;28;19944;-71
2022/11/20 09:25:32;;;;;;;15.75;14.13;;;;;;;-3.60;74.63;99406.19;10484520;28;20040;-72
2022/11/20 09:30:34;;;;;;;14.68;13.18;;;;;;;-3.46;74.46;99409.81;10501227;28;20049;-70
2022/11/20 09:35:36;;;;;;;16.00;14.57;;;;;;;-3.46;75.11;99409.81;10481772;28;20047;-72
2022/11/20 09:40:51;;;;;;;17.15;15.45;;;;;;;-2.96;73.75;99413.91;10483076;28;20059;-69
2022/11/20 09:46:28;;;;;;;17.42;15.82;;;;;;;-3.30;75.36;99423.75;10480689;28;20049;-72
2022/11/20 09:51:52;;;;;;;27.80;19.65;;;;;;;-2.95;74.57;99413.94;10498092;28;20094;-71
2022/11/20 09:56:59;;;;;;;27.05;20.02;;;;;;;-2.94;76.27;99412.22;10483051;28;20048;-70
2022/11/20 10:02:06;;;;;;;33.95;22.40;;;;;;;-2.55;76.03;99410.09;10466826;28;20056;-70
2022/11/20 10:07:19;;;;;;;20.38;17.98;;;;;;;-2.48;74.15;99395.56;10500349;28;20036;-73
2022/11/20 10:13:27;;;;;;;21.75;19.55;;;;;;;-2.31;75.30;99395.75;10481790;28;20106;-75
2022/11/20 10:18:47;;;;;;;19.73;17.63;;;;;;;-2.14;73.81;99390.75;10499753;28;20082;-73
2022/11/20 10:24:14;;;;;;;21.20;18.80;;;;;;;-2.05;74.33;99383.97;10500208;28;20438;-74
2022/11/20 10:29:18;;;;;;;19.83;17.93;;;;;;;-1.72;72.66;99372.22;10499720;28;20048;-74
2022/11/20 10:34:44;;;;;;;17.75;15.93;;;;;;;-1.69;73.38;99374.81;10500205;28;20032;-74
2022/11/20 10:40:28;;;;;;;22.00;18.23;;;;;;;-1.36;72.38;99371.59;10498572;28;20045;-75
2022/11/20 10:45:44;;;;;;;16.35;14.75;;;;;;;-1.35;73.68;99385.34;10496172;28;20044;-75
2022/11/20 10:51:27;;;;;;;21.80;17.00;;;;;;;-0.93;72.13;99382.13;10498535;28;20063;-71
2022/11/20 10:56:52;;;;;;;22.25;19.02;;;;;;;-0.29;70.99;99368.50;10479801;28;20053;-74
2022/11/20 11:01:53;;;;;;;16.85;15.25;;;;;;;1.00;66.27;99367.47;10498885;28;20115;-74
2022/11/20 11:07:04;;;;;;;13.60;12.30;;;;;;;0.76;66.11;99362.38;10497479;28;20047;-73
2022/11/20 11:12:08;;;;;;;9.65;8.75;;;;;;;0.57;70.55;99351.22;10498883;28;20040;-72
2022/11/20 11:17:32;;;;;;;9.50;8.60;;;;;;;0.67;72.68;99350.34;10499029;28;20044;-73
2022/11/20 11:22:45;;;;;;;10.23;9.32;;;;;;;0.65;74.54;99353.78;10506403;28;20040;-74
2022/11/20 11:27:48;;;;;;;9.52;7.25;;;;;;;0.85;72.15;99346.84;10488660;28;20527;-74
2022/11/20 11:32:50;;;;;;;10.75;9.85;;;;;;;0.61;72.75;99328.78;10506651;28;20036;-73
2022/11/20 11:38:23;;;;;;;10.55;9.55;;;;;;;0.14;76.94;99327.19;10471677;28;20045;-74
2022/11/20 11:49:16;;;;;;;13.05;11.88;;;;;;;0.53;74.98;99310.69;10296204;28;20550;-74
2022/11/20 11:54:23;;;;;;;10.90;9.90;;;;;;;0.64;73.63;99303.78;10280233;28;20552;-73
2022/11/20 12:00:09;;;;;;;10.77;9.30;;;;;;;0.49;74.16;99296.09;10297603;28;20051;-74
2022/11/20 12:05:36;;;;;;;10.48;9.48;;;;;;;0.46;74.54;99294.34;10131955;29;20147;-74
2022/11/20 12:10:45;;;;;;;10.15;9.15;;;;;;;0.46;75.07;99286.59;10138650;29;20048;-75
2022/11/20 12:15:48;;;;;;;13.15;12.00;;;;;;;0.29;76.42;99283.19;10139823;29;20067;-74
2022/11/20 12:21:05;;;;;;;10.50;9.50;;;;;;;0.36;77.11;99279.75;10250920;29;20550;-74
2022/11/20 12:26:56;;;;;;;10.80;9.80;;;;;;;0.32;77.72;99280.63;10239809;29;20050;-75
2022/11/20 12:32:15;;;;;;;9.95;8.90;;;;;;;0.13;80.02;99291.84;10230944;29;20065;-75
2022/11/20 12:37:35;;;;;;;10.88;9.88;;;;;;;-0.04;81.43;99290.16;10278584;28;20113;-76
2022/11/20 12:48:18;;;;;;;11.10;9.95;;;;;;;0.09;81.92;99288.44;10517365;22;20041;-70
2022/11/20 12:53:57;;;;;;;10.38;9.38;;;;;;;0.29;82.24;99284.94;10485680;28;20040;-70
2022/11/20 12:59:25;;;;;;;11.25;10.25;;;;;;;0.24;82.41;99274.59;10505826;28;20420;-72
2022/11/20 13:05:08;;;;;;;12.48;11.27;;;;;;;0.32;82.65;99269.41;10484961;28;20049;-72
2022/11/20 13:10:30;;;;;;;10.63;9.63;;;;;;;0.23;83.60;99267.72;10469689;28;20405;-72
2022/11/20 13:15:55;;;;;;;10.82;9.88;;;;;;;0.10;84.87;99264.28;10504894;28;20086;-72
2022/11/20 13:20:57;;;;;;;10.93;9.93;;;;;;;0.07;84.71;99261.72;10501285;28;20044;-72
2022/11/20 13:26:05;;;;;;;9.73;8.73;;;;;;;0.24;84.25;99254.78;10502980;28;20045;-72
2022/11/20 13:31:25;;;;;;;;;;;;;;;0.49;81.98;99257.31;10502223;28;20036;-73
2022/11/20 13:36:30;;;;;;;10.40;9.50;;;;;;;0.36;83.49;99253.03;10501475;28;19927;-72
2022/11/20 13:41:37;;;;;;;10.50;9.60;;;;;;;0.27;83.84;99238.41;10502843;28;20406;-71
2022/11/20 13:46:46;;;;;;;9.50;8.63;;;;;;;0.09;85.52;99244.50;10484424;28;20033;-72
2022/11/20 13:51:51;;;;;;;10.77;9.88;;;;;;;-0.13;86.81;99248.84;10498987;28;20271;-71
2022/11/20 13:57:07;;;;;;;10.27;9.27;;;;;;;-0.14;86.43;99249.69;10482511;28;20478;-71
2022/11/20 14:02:16;;;;;;;9.48;8.60;;;;;;;0.09;85.39;99252.25;10503406;28;20048;-71
2022/11/20 14:07:23;;;;;;;10.73;9.73;;;;;;;-0.09;85.76;99260.00;10501562;28;20441;-72
2022/11/20 14:12:30;;;;;;;17.77;15.77;;;;;;;-0.15;84.88;99258.28;10500494;28;20120;-73
2022/11/20 14:17:34;;;;;;;17.90;15.63;;;;;;;-0.14;84.95;99262.59;10506514;28;20037;-71
2022/11/20 14:22:36;;;;;;;13.25;12.15;;;;;;;-0.09;85.43;99255.72;10488603;28;20055;-71
2022/11/20 14:27:41;;;;;;;11.07;10.07;;;;;;;-0.38;86.82;99254.88;10506703;28;20036;-71
2022/11/20 14:32:44;;;;;;;14.88;13.57;;;;;;;-0.43;86.86;99254.03;10496650;28;20040;-72
2022/11/20 14:37:47;;;;;;;12.27;11.18;;;;;;;-0.55;86.90;99257.44;10480544;28;20473;-72
2022/11/20 14:42:49;;;;;;;12.00;10.88;;;;;;;-0.53;87.35;99251.44;10479033;28;20050;-72
2022/11/20 14:47:56;;;;;;;11.00;9.93;;;;;;;-0.74;87.71;99247.97;10497958;28;20043;-72
2022/11/20 14:53:00;;;;;;;12.45;11.27;;;;;;;-0.83;88.77;99235.94;10479184;28;20420;-71
2022/11/20 14:58:04;;;;;;;12.25;11.25;;;;;;;-0.83;87.30;99231.63;10488021;28;20052;-72
2022/11/20 15:03:15;;;;;;;11.57;10.57;;;;;;;-1.20;89.28;99246.16;10508123;28;20041;-72
2022/11/20 15:08:18;;;;;;;11.82;10.73;;;;;;;-1.34;90.34;99237.53;10490205;28;20045;-71
2022/11/20 15:13:34;;;;;;;12.90;11.80;;;;;;;-1.35;89.91;99233.22;10487249;28;20127;-71
2022/11/20 15:18:44;;;;;;;13.50;12.32;;;;;;;-1.56;91.03;99227.13;10506547;28;20048;-71
2022/11/20 15:23:46;;;;;;;12.20;11.10;;;;;;;-1.59;91.38;99232.28;10485434;28;20123;-70
2022/11/20 15:28:49;;;;;;;13.68;12.43;;;;;;;-1.69;91.01;99227.94;10507490;28;20048;-71
2022/11/20 15:33:52;;;;;;;15.02;13.65;;;;;;;-1.82;91.34;99218.41;10531301;28;20048;-71
2022/11/20 15:38:53;;;;;;;13.70;12.40;;;;;;;-1.88;91.36;99216.69;10547737;28;20493;-72
2022/11/20 15:43:55;;;;;;;13.82;12.57;;;;;;;-1.88;91.21;99220.97;10544881;28;20455;-71
2022/11/20 15:48:59;;;;;;;14.77;13.38;;;;;;;-2.01;92.54;99219.19;10529538;28;20062;-71
2022/11/20 15:54:12;;;;;;;15.18;13.77;;;;;;;-2.16;93.46;99219.97;10529383;28;20032;-72
2022/11/20 15:59:15;;;;;;;15.60;14.20;;;;;;;-2.22;93.64;99227.63;10521340;28;20093;-71
2022/11/20 16:04:18;;;;;;;16.58;15.13;;;;;;;-2.25;94.50;99227.63;10486194;28;20099;-71
2022/11/20 16:09:20;;;;;;;19.27;16.35;;;;;;;-2.29;95.14;99227.59;10486665;28;20105;-71
2022/11/20 16:19:42;;;;;;;17.80;16.02;;;;;;;-2.28;95.31;99236.19;10502007;28;20118;-71
2022/11/20 16:24:43;;;;;;;17.00;15.32;;;;;;;-2.46;95.89;99236.06;10488167;28;20075;-72
2022/11/20 16:29:45;;;;;;;17.42;15.73;;;;;;;-2.52;95.98;99229.16;10504837;28;20090;-71
2022/11/20 16:34:47;;;;;;;18.13;16.25;;;;;;;-2.62;97.03;99235.91;10507685;28;20135;-70
2022/11/20 16:39:49;;;;;;;17.23;15.63;;;;;;;-2.62;96.77;99235.91;10546019;28;20040;-72
2022/11/20 16:44:51;;;;;;;21.55;19.23;;;;;;;-2.72;97.54;99241.84;10545006;28;20048;-71
2022/11/20 16:49:53;;;;;;;27.52;21.73;;;;;;;-2.71;96.75;99240.13;10543809;28;20046;-71
2022/11/20 16:54:54;;;;;;;19.83;17.90;;;;;;;-2.73;96.52;99237.56;10546562;28;20081;-71
2022/11/20 16:59:57;;;;;;;21.95;16.63;;;;;;;-2.71;96.31;99232.41;10545237;28;20047;-71
2022/11/20 17:05:03;;;;;;;17.80;16.07;;;;;;;-2.99;96.50;99228.75;10545470;28;20067;-70
2022/11/20 17:10:05;;;;;;;20.15;18.05;;;;;;;-3.03;97.48;99243.28;10526462;28;20054;-71
2022/11/20 17:15:07;;;;;;;35.05;23.90;;;;;;;-2.98;97.94;99239.03;10545406;28;20386;-70
2022/11/20 17:20:11;;;;;;;28.90;22.58;;;;;;;-3.13;98.08;99229.47;10525975;28;20446;-70
2022/11/20 17:25:13;;;;;;;27.52;21.67;;;;;;;-3.20;98.42;99222.53;10526553;28;20064;-71
2022/11/20 17:30:15;;;;;;;26.17;21.58;;;;;;;-3.33;98.54;99230.94;10544892;28;20052;-70
2022/11/20 17:35:16;;;;;;;20.45;18.20;;;;;;;-3.28;99.23;99220.72;10544486;28;20055;-71
2022/11/20 17:40:18;;;;;;;25.48;18.92;;;;;;;-3.30;98.58;99215.56;10524109;28;20501;-71
2022/11/20 17:45:27;;;;;;;17.88;15.98;;;;;;;-3.25;97.72;99219.06;10526168;28;20516;-71
2022/11/20 17:50:29;;;;;;;16.77;15.00;;;;;;;-3.28;98.30;99213.88;10542828;28;20047;-71
2022/11/20 17:57:51;;;;;;;16.23;14.60;;;;;;;-2.76;97.10;99218.66;10543100;28;20043;-71
2022/11/20 18:01:04;;;;;;;16.13;14.52;;;;;;;-2.42;93.69;99214.66;10543549;28;20451;-70
2022/11/20 18:06:21;;;;;;;15.38;13.68;;;;;;;-2.13;90.38;99200.22;10542155;28;20048;-70
2022/11/20 18:11:29;;;;;;;13.02;11.88;;;;;;;-1.98;89.86;99193.47;10524217;28;20052;-70
2022/11/20 18:16:35;;;;;;;14.68;13.27;;;;;;;-2.13;89.91;99195.06;10524146;28;20032;-71
2022/11/20 18:21:36;;;;;;;14.20;12.55;;;;;;;-2.31;90.59;99185.53;10527788;28;20503;-70
2022/11/20 18:26:38;;;;;;;16.00;14.35;;;;;;;-2.56;92.07;99192.25;10541697;28;20036;-72
2022/11/20 18:31:45;;;;;;;16.03;14.40;;;;;;;-2.47;91.75;99211.19;10543445;28;20047;-71
2022/11/20 18:36:46;;;;;;;16.55;14.93;;;;;;;-2.71;92.75;99196.41;10544346;28;20062;-71
2022/11/20 18:47:12;;;;;;;17.13;15.32;;;;;;;-2.97;94.77;99189.31;10536820;22;20516;-73
2022/11/20 18:52:16;;;;;;;17.57;15.77;;;;;;;-3.06;95.03;99187.53;10501961;28;20067;-72
2022/11/20 18:57:20;;;;;;;17.27;15.32;;;;;;;-3.19;95.86;99177.97;10501191;28;20045;-73
2022/11/20 19:02:22;;;;;;;17.52;15.70;;;;;;;-3.32;96.26;99177.03;10502362;28;20497;-73
2022/11/20 19:07:24;;;;;;;21.15;17.55;;;;;;;-3.37;97.51;99170.94;10483089;28;20051;-74
2022/11/20 19:12:26;;;;;;;24.15;18.60;;;;;;;-3.31;97.87;99177.88;10485439;28;20045;-74
2022/11/20 19:17:28;;;;;;;22.65;18.63;;;;;;;-3.49;97.98;99181.13;10483406;28;20040;-74
2022/11/20 19:22:30;;;;;;;24.02;19.83;;;;;;;-3.58;98.83;99171.59;10502672;28;20040;-74
2022/11/20 19:27:32;;;;;;;23.48;19.45;;;;;;;-3.56;98.61;99164.75;10485372;28;20114;-74
2022/11/20 19:32:34;;;;;;;23.38;20.65;;;;;;;-3.61;99.77;99157.88;10467506;28;20417;-73
2022/11/20 19:37:39;;;;;;;22.17;19.40;;;;;;;-3.50;100.00;99152.81;10483237;28;20052;-74
2022/11/20 19:42:41;;;;;;;29.27;20.50;;;;;;;-3.26;98.61;99157.38;10492010;28;20091;-74
2022/11/20 19:47:44;;;;;;;23.42;19.33;;;;;;;-3.65;98.31;99164.66;10490502;28;20044;-74
2022/11/20 19:53:06;;;;;;;26.38;18.85;;;;;;;-3.71;98.85;99156.91;10490027;28;20094;-74
2022/11/20 19:58:08;;;;;;;24.65;18.73;;;;;;;-3.73;99.68;99152.59;10508118;28;20033;-74
2022/11/20 20:03:10;;;;;;;21.40;18.90;;;;;;;-3.79;99.79;99150.81;10510677;28;20060;-74
2022/11/20 20:08:12;;;;;;;27.75;19.60;;;;;;;-3.62;99.53;99151.88;10507680;28;20482;-72
2022/11/20 20:13:17;;;;;;;24.00;18.92;;;;;;;-3.79;99.06;99145.69;10488625;28;20087;-74
2022/11/20 20:18:19;;;;;;;28.88;20.80;;;;;;;-3.60;98.15;99137.31;10490435;28;20041;-75
2022/11/20 20:23:21;;;;;;;26.27;20.60;;;;;;;-3.86;99.57;99126.75;10489773;28;20048;-74
2022/11/20 20:28:23;;;;;;;28.35;19.55;;;;;;;-3.73;100.00;99126.91;10490250;28;20036;-74
2022/11/20 20:33:25;;;;;;;27.35;20.27;;;;;;;-3.69;100.00;99118.38;10488494;28;20131;-75
2022/11/20 20:38:26;;;;;;;32.15;23.00;;;;;;;-3.28;100.00;99125.63;10505306;28;20036;-73
2022/11/20 20:43:28;;;;;;;31.02;23.80;;;;;;;-3.14;100.00;99109.50;10487030;28;20048;-74
2022/11/20 20:48:30;;;;;;;40.47;22.70;;;;;;;-3.07;100.00;99108.69;10504532;28;20048;-73
2022/11/20 20:53:32;;;;;;;34.72;22.45;;;;;;;-2.99;100.00;99107.91;10504909;28;20037;-75
2022/11/20 20:58:35;;;;;;;30.75;22.73;;;;;;;-3.15;100.00;99101.75;10486800;28;20424;-74
2022/11/20 21:03:37;;;;;;;28.85;22.45;;;;;;;-3.19;100.00;99100.00;10503352;28;20096;-73
2022/11/20 21:08:39;;;;;;;26.33;20.67;;;;;;;-3.19;100.00;99090.59;10485680;28;20052;-72
2022/11/20 21:13:46;;;;;;;28.75;21.85;;;;;;;-2.94;100.00;99101.06;10503822;28;20078;-74
2022/11/20 21:18:48;;;;;;;30.90;21.55;;;;;;;-3.14;100.00;99065.81;10485562;28;20052;-74
2022/11/20 21:23:50;;;;;;;28.25;22.58;;;;;;;-3.03;100.00;99053.00;10502232;28;20048;-73
2022/11/20 21:28:52;;;;;;;26.33;21.42;;;;;;;-2.79;100.00;99047.16;10502324;28;20045;-73
2022/11/20 21:33:55;;;;;;;27.90;21.73;;;;;;;-2.53;100.00;99026.72;10503442;28;20047;-73
2022/11/20 21:38:58;;;;;;;26.95;21.25;;;;;;;-2.62;99.60;99004.38;10502007;28;20048;-73
2022/11/20 21:44:02;;;;;;;30.63;22.38;;;;;;;-2.46;100.00;99017.31;10467819;28;20040;-73
2022/11/20 21:49:24;;;;;;;26.35;20.85;;;;;;;-2.61;100.00;99005.25;10469597;28;20493;-74
2022/11/20 21:54:26;;;;;;;22.02;19.85;;;;;;;-2.56;100.00;98999.28;10482876;28;20471;-74
2022/11/20 21:59:28;;;;;;;31.63;22.10;;;;;;;-2.21;98.64;98989.94;10500284;28;20045;-74
2022/11/20 22:04:29;;;;;;;26.17;19.67;;;;;;;-2.17;98.36;98983.94;10500421;28;20210;-73
2022/11/20 22:09:31;;;;;;;27.40;20.55;;;;;;;-1.97;96.08;98974.56;10500796;28;20489;-74
2022/11/20 22:14:33;;;;;;;25.13;18.95;;;;;;;-1.93;94.55;98973.69;10481706;28;20051;-72
2022/11/20 22:19:34;;;;;;;21.88;19.52;;;;;;;-2.16;96.04;98965.94;10499266;28;20052;-72
2022/11/20 22:24:36;;;;;;;23.10;19.30;;;;;;;-2.41;98.26;98957.28;10499037;28;20044;-74
2022/11/20 22:29:37;;;;;;;19.65;17.67;;;;;;;-2.21;98.20;98946.16;10499182;28;20086;-72
2022/11/20 22:34:39;;;;;;;19.67;17.73;;;;;;;-2.34;98.42;98943.59;10481525;28;20098;-72
2022/11/20 22:39:41;;;;;;;19.83;17.83;;;;;;;-2.34;98.44;98932.44;10480871;28;20505;-74
2022/11/20 22:44:42;;;;;;;17.85;16.15;;;;;;;-2.15;98.79;98930.75;10498883;28;20444;-74
2022/11/20 22:49:44;;;;;;;19.88;17.88;;;;;;;-1.88;97.53;98925.63;10499176;28;20040;-72
2022/11/20 22:54:45;;;;;;;22.30;18.25;;;;;;;-2.16;98.11;98918.75;10499171;28;20047;-73
2022/11/20 22:59:47;;;;;;;19.38;17.13;;;;;;;-1.91;97.77;98923.03;10498889;28;20032;-74
2022/11/20 23:04:49;;;;;;;22.55;18.92;;;;;;;-2.31;100.00;98904.97;10480479;28;20044;-73
2022/11/20 23:09:50;;;;;;;21.98;18.95;;;;;;;-2.40;100.00;98901.53;10498557;28;20067;-72
2022/11/20 23:14:52;;;;;;;22.27;19.88;;;;;;;-1.94;100.00;98889.56;10483482;28;20098;-73
2022/11/20 23:19:54;;;;;;;32.00;22.98;;;;;;;-2.15;100.00;98876.69;10507394;28;20478;-73
2022/11/20 23:24:55;;;;;;;37.53;24.33;;;;;;;-2.17;100.00;98866.41;10506289;28;20040;-73
2022/11/20 23:29:57;;;;;;;39.65;24.38;;;;;;;-1.96;100.00;98860.38;10508047;28;20048;-73
2022/11/20 23:34:59;;;;;;;43.80;25.10;;;;;;;-1.86;100.00;98862.09;10489786;28;20040;-73
2022/11/20 23:40:02;;;;;;;39.58;25.88;;;;;;;-2.22;100.00;98852.66;10506849;28;20053;-73